Gorodets, Russia
Current Conditions -  °F | °C
As of 5:00 PM on Wednesday 22 Oct 2014 (Local Time) from UWGG Reporting Station
Snow Showers Snow Showers  
Wind Chill: 11°   Ceiling: 800
Heat Index: 19°   Visibility: 1mi
Dew Point: 18°   Wind: 7mph
Humidity: 93%   Direction: 320°NW
Pressure: 29.8"   Gusts: NA
Location:  56.65°N, 43.48°E
Report Text: UWGG 221400Z 32003MPS 1600 SHSN OVC008CB M07/M08 Q1009 TEMPO31006G11MPS 1000 SHSN BLSN OVC009CB 36490535 RMK QFE749
Loading
Personal Weather Stations






























Interactive Weather Map
Tropical Storm Tracking
New forecast layout! Learn more

10-Day Weather Forecast

Advertisements
Track Severe Weather on mobile